createdAt,value
2023-10-12T00:05:01.505Z,19.60
2023-10-12T00:12:45.774Z,19.60
2023-10-12T00:15:26.768Z,19.60
2023-10-12T00:17:59.409Z,19.70
2023-10-12T00:20:32.932Z,19.70
2023-10-12T00:23:00.672Z,19.70
2023-10-12T00:27:54.631Z,19.70
2023-10-12T00:32:49.343Z,19.80
2023-10-12T00:35:18.253Z,19.80
2023-10-12T00:37:45.161Z,19.70
2023-10-12T00:40:42.657Z,19.70
2023-10-12T00:43:13.162Z,19.70
2023-10-12T00:48:16.930Z,19.60
2023-10-12T00:50:48.743Z,19.60
2023-10-12T00:53:23.487Z,19.60
2023-10-12T00:55:52.247Z,19.60
2023-10-12T01:06:12.602Z,19.50
2023-10-12T01:08:44.048Z,19.60
2023-10-12T01:11:19.173Z,19.60
2023-10-12T01:13:48.366Z,19.60
2023-10-12T01:16:25.087Z,19.60
2023-10-12T01:19:01.751Z,19.60
2023-10-12T01:24:03.067Z,19.60
2023-10-12T01:26:32.732Z,19.60
2023-10-12T01:29:01.533Z,19.50
2023-10-12T01:33:59.273Z,19.50
2023-10-12T01:36:31.557Z,19.50
2023-10-12T01:44:11.822Z,19.40
2023-10-12T01:46:42.298Z,19.40
2023-10-12T01:49:12.650Z,19.40
2023-10-12T01:51:45.999Z,19.40
2023-10-12T01:56:40.595Z,19.30
2023-10-12T01:59:08.749Z,19.30
2023-10-12T02:01:36.535Z,19.30
2023-10-12T02:04:05.107Z,19.30
2023-10-12T02:06:32.059Z,19.30
2023-10-12T02:11:46.275Z,19.40
2023-10-12T02:14:13.850Z,19.30
2023-10-12T02:16:54.092Z,19.30
2023-10-12T02:22:02.443Z,19.20
2023-10-12T02:27:01.434Z,19.20
2023-10-12T02:29:31.048Z,19.20
2023-10-12T02:32:00.178Z,19.20
2023-10-12T02:34:28.566Z,19.10
2023-10-12T02:37:09.616Z,19.10
2023-10-12T02:39:43.826Z,19.10
2023-10-12T02:42:17.631Z,19.00
2023-10-12T02:44:56.005Z,19.00
2023-10-12T02:47:31.387Z,18.90
2023-10-12T02:50:16.701Z,18.80
2023-10-12T02:55:26.175Z,18.50
2023-10-12T02:58:00.753Z,18.40
2023-10-12T03:03:39.113Z,18.40
2023-10-12T03:06:09.689Z,18.30
2023-10-12T03:08:48.791Z,18.30
2023-10-12T03:16:45.629Z,18.20
2023-10-12T03:19:25.436Z,18.20
2023-10-12T03:24:30.951Z,18.10
2023-10-12T03:27:03.677Z,18.00
2023-10-12T03:29:30.431Z,17.90
2023-10-12T03:31:58.973Z,17.90
2023-10-12T03:34:35.723Z,20.60
2023-10-12T03:37:14.341Z,17.90
2023-10-12T03:40:00.993Z,17.90
2023-10-12T03:42:28.775Z,17.80
2023-10-12T03:45:15.186Z,17.70
2023-10-12T03:48:03.695Z,17.70
2023-10-12T03:50:35.725Z,17.70
2023-10-12T03:55:35.882Z,17.70
2023-10-12T04:00:49.297Z,17.50
2023-10-12T04:03:36.119Z,17.50
2023-10-12T04:06:24.269Z,17.50
2023-10-12T04:08:56.021Z,17.40
2023-10-12T04:17:10.292Z,17.30
2023-10-12T04:22:26.593Z,17.30
2023-10-12T04:24:57.037Z,17.30
2023-10-12T04:27:32.653Z,17.20
2023-10-12T04:30:01.768Z,17.20
2023-10-12T04:38:09.864Z,17.20
2023-10-12T04:45:57.777Z,17.10
2023-10-12T04:48:32.636Z,17.10
2023-10-12T04:53:59.075Z,17.10
2023-10-12T04:56:27.724Z,17.20
2023-10-12T04:58:58.060Z,17.10
2023-10-12T05:01:42.029Z,17.10
2023-10-12T05:07:13.293Z,17.10
2023-10-12T05:09:40.019Z,17.10
2023-10-12T05:12:07.803Z,17.00
2023-10-12T05:21:59.461Z,17.00
2023-10-12T05:24:26.475Z,16.90
2023-10-12T05:26:58.969Z,16.90
2023-10-12T05:32:19.411Z,16.80
2023-10-12T05:34:47.769Z,16.80
2023-10-12T05:37:28.315Z,16.80
2023-10-12T05:39:56.692Z,16.70
2023-10-12T05:42:24.101Z,16.70
2023-10-12T05:44:52.436Z,16.70
2023-10-12T05:47:29.598Z,16.70
2023-10-12T05:50:00.332Z,16.60
2023-10-12T05:52:27.517Z,16.60
2023-10-12T05:55:00.718Z,16.60
2023-10-12T05:57:31.190Z,16.60
2023-10-12T06:02:30.000Z,16.50
2023-10-12T06:04:58.164Z,16.50
2023-10-12T06:12:26.007Z,16.50
2023-10-12T06:17:32.200Z,16.50
2023-10-12T06:20:12.736Z,16.40
2023-10-12T06:22:39.926Z,16.40
2023-10-12T06:25:19.647Z,16.40
2023-10-12T06:27:46.405Z,16.40
2023-10-12T06:30:20.096Z,16.40
2023-10-12T06:35:25.188Z,16.40
2023-10-12T06:40:26.990Z,16.40
2023-10-12T06:43:14.810Z,16.40
2023-10-12T06:45:56.684Z,16.40
2023-10-12T06:48:31.965Z,16.40
2023-10-12T06:51:04.175Z,16.40
2023-10-12T06:56:21.648Z,16.50
2023-10-12T06:59:12.555Z,16.40
2023-10-12T07:01:49.953Z,16.30
2023-10-12T07:04:29.635Z,16.40
2023-10-12T07:07:02.186Z,16.40
2023-10-12T07:09:47.704Z,16.40
2023-10-12T07:12:16.102Z,16.40
2023-10-12T07:14:54.475Z,16.40
2023-10-12T07:20:00.735Z,16.40
2023-10-12T07:30:09.670Z,16.50
2023-10-12T07:35:12.969Z,16.50
2023-10-12T07:40:20.726Z,16.50
2023-10-12T07:42:48.221Z,16.50
2023-10-12T07:45:16.460Z,16.60
2023-10-12T07:47:47.065Z,16.50
2023-10-12T07:55:18.617Z,16.50
2023-10-12T07:57:47.396Z,16.50
2023-10-12T08:00:14.648Z,16.50
2023-10-12T08:02:49.047Z,16.50
2023-10-12T08:05:25.474Z,16.50
2023-10-12T08:08:02.259Z,16.50
2023-10-12T08:10:40.476Z,16.50
2023-10-12T08:13:26.767Z,16.50
2023-10-12T08:15:55.724Z,16.50
2023-10-12T08:18:42.482Z,16.60
2023-10-12T08:21:24.171Z,16.60
2023-10-12T08:24:05.043Z,16.60
2023-10-12T08:26:48.593Z,16.60
2023-10-12T08:29:23.119Z,16.60
2023-10-12T08:32:13.961Z,16.70
2023-10-12T08:37:38.191Z,16.70
2023-10-12T08:40:18.630Z,16.70
2023-10-12T08:48:03.337Z,16.80
2023-10-12T08:53:23.644Z,16.90
2023-10-12T08:55:53.150Z,17.00
2023-10-12T08:58:40.464Z,17.10
2023-10-12T09:01:11.075Z,17.10
2023-10-12T09:03:40.207Z,17.10
2023-10-12T09:06:21.146Z,17.20
2023-10-12T09:08:48.234Z,17.20
2023-10-12T09:13:46.616Z,17.20
2023-10-12T09:16:15.610Z,17.30
2023-10-12T09:18:58.474Z,17.30
2023-10-12T09:21:30.241Z,17.40
2023-10-12T09:26:35.569Z,17.60
2023-10-12T09:29:09.840Z,17.70
2023-10-12T09:31:38.334Z,17.80
2023-10-12T09:34:13.032Z,17.90
2023-10-12T09:36:45.688Z,18.00
2023-10-12T09:39:17.746Z,18.20
2023-10-12T09:41:56.527Z,18.30
2023-10-12T09:44:35.998Z,18.40
2023-10-12T09:47:10.302Z,18.60
2023-10-12T09:49:44.986Z,18.70
2023-10-12T09:52:15.105Z,18.80
2023-10-12T09:54:50.882Z,18.90
2023-10-12T09:59:54.986Z,19.00
2023-10-12T10:02:29.249Z,19.10
2023-10-12T10:05:13.175Z,19.20
2023-10-12T10:07:55.148Z,19.40
2023-10-12T10:10:34.563Z,19.40
2023-10-12T10:13:06.740Z,19.40
2023-10-12T10:15:45.630Z,19.50
2023-10-12T10:23:20.733Z,19.40
2023-10-12T10:25:57.802Z,19.50
2023-10-12T10:28:28.942Z,19.50
2023-10-12T10:31:00.971Z,19.50
2023-10-12T10:33:30.169Z,19.60
2023-10-12T10:36:00.088Z,19.50
2023-10-12T10:38:34.746Z,19.50
2023-10-12T10:41:08.974Z,19.60
2023-10-12T10:43:40.705Z,19.70
2023-10-12T10:46:12.150Z,19.90
2023-10-12T10:51:12.338Z,20.00
2023-10-12T10:53:39.615Z,20.00
2023-10-12T10:56:16.604Z,20.20
2023-10-12T10:58:47.316Z,20.40
2023-10-12T11:01:15.778Z,20.50
2023-10-12T11:03:47.516Z,20.50
2023-10-12T11:06:22.502Z,20.50
2023-10-12T11:09:15.129Z,20.50
2023-10-12T11:19:24.886Z,20.40
2023-10-12T11:21:55.129Z,20.60
2023-10-12T11:24:24.953Z,20.60
2023-10-12T11:26:59.303Z,20.70
2023-10-12T11:29:27.049Z,20.70
2023-10-12T11:32:11.193Z,20.80
2023-10-12T11:34:45.882Z,20.80
2023-10-12T11:37:16.648Z,20.80
2023-10-12T11:39:53.752Z,20.80
2023-10-12T11:44:50.099Z,20.90
2023-10-12T11:47:25.647Z,20.80
2023-10-12T11:49:59.438Z,20.80
2023-10-12T11:52:31.698Z,20.80
2023-10-12T11:55:08.821Z,20.70
2023-10-12T11:57:38.995Z,20.80
2023-10-12T12:00:22.205Z,20.70
2023-10-12T12:05:27.919Z,20.70
2023-10-12T12:07:55.181Z,20.90
2023-10-12T12:10:39.648Z,21.00
2023-10-12T12:13:10.099Z,21.10
2023-10-12T12:15:37.596Z,21.10
2023-10-12T12:18:15.080Z,21.10
2023-10-12T12:20:45.557Z,20.90
2023-10-12T12:23:13.060Z,20.90
2023-10-12T12:25:40.838Z,20.80
2023-10-12T12:28:09.036Z,20.60
2023-10-12T12:38:28.259Z,20.10
2023-10-12T12:43:23.142Z,20.20
2023-10-12T12:48:17.089Z,20.20
2023-10-12T12:53:19.799Z,20.10
2023-10-12T12:55:47.424Z,20.00
2023-10-12T12:58:16.690Z,20.00
2023-10-12T13:00:47.895Z,19.90
2023-10-12T13:03:16.028Z,19.80
2023-10-12T13:05:42.842Z,19.70
2023-10-12T13:08:12.306Z,19.60
2023-10-12T13:10:39.804Z,19.50
2023-10-12T13:13:07.822Z,19.60
2023-10-12T13:18:20.407Z,19.50
2023-10-12T13:20:48.117Z,19.50
2023-10-12T13:23:16.821Z,19.50
2023-10-12T13:25:43.686Z,19.40
2023-10-12T13:30:38.359Z,19.50
2023-10-12T13:33:07.215Z,19.50
2023-10-12T13:38:11.648Z,19.60
2023-10-12T13:40:42.362Z,19.60
2023-10-12T13:43:18.125Z,19.50
2023-10-12T13:45:50.174Z,19.40
2023-10-12T13:48:22.385Z,19.30
2023-10-12T13:51:18.900Z,19.20
2023-10-12T13:56:14.429Z,18.90
2023-10-12T13:58:42.686Z,18.80
2023-10-12T14:01:16.042Z,18.90
2023-10-12T14:03:46.785Z,18.80
2023-10-12T14:06:14.338Z,18.70
2023-10-12T14:11:15.304Z,18.70
2023-10-12T14:16:11.046Z,18.60
2023-10-12T14:18:42.317Z,18.60
2023-10-12T14:21:16.296Z,18.60
2023-10-12T14:23:48.824Z,18.70
2023-10-12T14:26:19.050Z,18.80
2023-10-12T14:28:52.268Z,18.70
2023-10-12T14:31:23.766Z,18.70
2023-10-12T14:33:53.309Z,18.70
2023-10-12T14:36:20.729Z,18.70
2023-10-12T14:43:48.858Z,18.70
2023-10-12T14:48:51.233Z,18.70
2023-10-12T14:56:28.610Z,18.70
2023-10-12T14:58:56.960Z,18.70
2023-10-12T15:01:29.295Z,18.70
2023-10-12T15:03:56.921Z,18.80
2023-10-12T15:06:23.962Z,18.70
2023-10-12T15:08:54.152Z,18.70
2023-10-12T15:11:21.159Z,18.60
2023-10-12T15:16:17.276Z,18.60
2023-10-12T15:21:28.632Z,18.50
2023-10-12T15:26:24.029Z,18.40
2023-10-12T15:28:52.544Z,18.40
2023-10-12T15:31:24.552Z,18.30
2023-10-12T15:33:51.931Z,18.30
2023-10-12T15:36:19.283Z,18.40
2023-10-12T15:41:13.323Z,18.40
2023-10-12T15:43:40.446Z,18.40
2023-10-12T15:46:10.452Z,18.50
2023-10-12T15:48:37.731Z,18.40
2023-10-12T16:05:53.625Z,18.30
2023-10-12T16:10:53.142Z,18.20
2023-10-12T16:13:19.853Z,18.10
2023-10-12T16:18:14.154Z,18.00
2023-10-12T16:23:08.287Z,17.90
2023-10-12T16:30:35.910Z,17.90
2023-10-12T16:33:03.478Z,17.80
2023-10-12T16:35:30.623Z,17.80
2023-10-12T16:38:01.856Z,17.70
2023-10-12T16:40:31.351Z,17.60
2023-10-12T16:42:58.136Z,17.60
2023-10-12T16:45:26.529Z,17.50
2023-10-12T16:50:20.657Z,17.40
2023-10-12T17:00:17.580Z,17.30
2023-10-12T17:02:46.322Z,17.30
2023-10-12T17:05:20.586Z,17.20
2023-10-12T17:10:26.884Z,17.20
2023-10-12T17:15:22.336Z,17.20
2023-10-12T17:17:51.288Z,17.20
2023-10-12T17:22:47.072Z,17.20
2023-10-12T17:27:44.531Z,17.10
2023-10-12T17:30:12.371Z,17.10
2023-10-12T17:32:42.050Z,17.10
2023-10-12T17:37:43.683Z,17.10
2023-10-12T17:40:11.872Z,17.10
2023-10-12T17:42:38.883Z,17.10
2023-10-12T17:45:10.945Z,17.10
2023-10-12T17:47:41.653Z,17.10
2023-10-12T17:50:16.159Z,17.00
2023-10-12T17:52:44.711Z,17.00
2023-10-12T17:55:12.698Z,17.00
2023-10-12T17:57:39.410Z,16.90
2023-10-12T18:00:11.118Z,16.90
2023-10-12T18:02:39.531Z,16.90
2023-10-12T18:05:10.163Z,16.90
2023-10-12T18:07:37.314Z,16.90
2023-10-12T18:12:31.910Z,16.90
2023-10-12T18:17:26.412Z,16.80
2023-10-12T18:19:56.291Z,16.80
2023-10-12T18:22:24.706Z,16.80
2023-10-12T18:27:21.092Z,16.80
2023-10-12T18:29:47.867Z,16.80
2023-10-12T18:32:16.318Z,16.70
2023-10-12T18:37:13.887Z,16.80
2023-10-12T18:42:10.569Z,16.80
2023-10-12T18:47:06.011Z,16.80
2023-10-12T18:49:32.861Z,16.80
2023-10-12T18:51:59.800Z,16.80
2023-10-12T18:56:54.002Z,16.80
2023-10-12T19:01:51.007Z,16.80
2023-10-12T19:04:18.168Z,16.80
2023-10-12T19:06:49.523Z,16.80
2023-10-12T19:09:16.461Z,16.80
2023-10-12T19:11:43.360Z,16.80
2023-10-12T19:14:11.102Z,16.80
2023-10-12T19:16:39.511Z,16.80
2023-10-12T19:19:08.621Z,16.80
2023-10-12T19:24:07.251Z,16.80
2023-10-12T19:26:34.386Z,16.80
2023-10-12T19:31:31.952Z,16.70
2023-10-12T19:33:58.905Z,16.70
2023-10-12T19:38:52.917Z,16.70
2023-10-12T19:43:48.059Z,16.70
2023-10-12T19:46:16.027Z,16.70
2023-10-12T19:48:45.892Z,16.70
2023-10-12T19:51:14.684Z,16.70
2023-10-12T19:53:47.392Z,16.70
2023-10-12T20:01:15.181Z,16.70
2023-10-12T20:03:46.242Z,16.80
2023-10-12T20:06:13.176Z,16.70
2023-10-12T20:08:40.248Z,16.80
2023-10-12T20:18:33.673Z,16.80
2023-10-12T20:23:28.142Z,16.80
2023-10-12T20:25:55.067Z,16.80
2023-10-12T20:28:24.732Z,16.80
2023-10-12T20:30:53.018Z,16.80
2023-10-12T20:33:21.210Z,16.80
2023-10-12T20:35:49.071Z,16.80
2023-10-12T20:38:21.617Z,16.80
2023-10-12T20:40:49.458Z,16.80
2023-10-12T20:51:09.578Z,16.80
2023-10-12T20:53:37.229Z,16.90
2023-10-12T20:58:43.788Z,16.80
2023-10-12T21:03:59.165Z,16.70
2023-10-12T21:14:05.307Z,16.90
2023-10-12T21:16:33.710Z,16.90
2023-10-12T21:19:21.055Z,16.90
2023-10-12T21:21:51.164Z,16.90
2023-10-12T21:29:23.045Z,16.90
2023-10-12T21:32:02.786Z,16.80
2023-10-12T21:37:03.632Z,16.90
2023-10-12T21:39:36.524Z,16.90
2023-10-12T21:42:06.471Z,16.90
2023-10-12T21:47:04.002Z,16.90
2023-10-12T21:52:01.502Z,16.80
2023-10-12T22:02:04.038Z,16.70
2023-10-12T22:09:44.814Z,16.60
2023-10-12T22:12:14.440Z,16.60
2023-10-12T22:14:59.977Z,16.60
2023-10-12T22:17:28.724Z,16.60
2023-10-12T22:19:57.491Z,16.60
2023-10-12T22:27:22.396Z,16.70
2023-10-12T22:29:49.184Z,16.60
2023-10-12T22:34:43.053Z,16.70
2023-10-12T22:42:10.000Z,16.70
2023-10-12T22:44:36.872Z,16.70
2023-10-12T22:47:04.440Z,16.70
2023-10-12T22:49:34.784Z,16.60
2023-10-12T22:52:01.804Z,16.60
2023-10-12T22:57:06.450Z,16.70
2023-10-12T22:59:33.779Z,16.70
2023-10-12T23:06:55.935Z,16.60
2023-10-12T23:16:53.144Z,16.60
2023-10-12T23:19:37.577Z,16.60
2023-10-12T23:22:23.176Z,16.60
2023-10-12T23:24:50.196Z,16.60
2023-10-12T23:29:46.656Z,16.60
2023-10-12T23:32:15.149Z,16.60
2023-10-12T23:34:45.496Z,16.60
2023-10-12T23:37:13.519Z,16.60
2023-10-12T23:42:15.414Z,16.60
2023-10-12T23:44:51.827Z,16.60
2023-10-12T23:50:10.428Z,16.60
2023-10-12T23:52:53.306Z,16.60
2023-10-12T23:58:02.668Z,16.60
